sensor_id;sensor_type;location;lat;lon;timestamp;P1;durP1;ratioP1;P2;durP2;ratioP2
55989;SDS011;41875;55.806;38.082;2023-05-07T00:01:50;5.47;;;2.40;;
55989;SDS011;41875;55.806;38.082;2023-05-07T00:09:15;5.88;;;3.00;;
55989;SDS011;41875;55.806;38.082;2023-05-07T00:14:13;8.77;;;2.65;;
55989;SDS011;41875;55.806;38.082;2023-05-07T00:16:42;5.75;;;2.80;;
55989;SDS011;41875;55.806;38.082;2023-05-07T00:19:10;8.88;;;3.25;;
55989;SDS011;41875;55.806;38.082;2023-05-07T00:21:39;7.35;;;3.30;;
55989;SDS011;41875;55.806;38.082;2023-05-07T00:24:07;9.20;;;3.75;;
55989;SDS011;41875;55.806;38.082;2023-05-07T00:26:36;9.68;;;4.05;;
55989;SDS011;41875;55.806;38.082;2023-05-07T00:31:34;11.18;;;3.28;;
55989;SDS011;41875;55.806;38.082;2023-05-07T00:34:02;6.75;;;2.90;;
55989;SDS011;41875;55.806;38.082;2023-05-07T00:36:31;8.50;;;3.30;;
55989;SDS011;41875;55.806;38.082;2023-05-07T00:38:59;7.45;;;3.45;;
55989;SDS011;41875;55.806;38.082;2023-05-07T00:41:30;10.48;;;3.70;;
55989;SDS011;41875;55.806;38.082;2023-05-07T00:43:58;9.38;;;2.72;;
55989;SDS011;41875;55.806;38.082;2023-05-07T00:46:30;8.50;;;3.03;;
55989;SDS011;41875;55.806;38.082;2023-05-07T00:49:00;8.57;;;3.17;;
55989;SDS011;41875;55.806;38.082;2023-05-07T00:51:29;6.15;;;2.85;;
55989;SDS011;41875;55.806;38.082;2023-05-07T00:53:59;6.22;;;2.88;;
55989;SDS011;41875;55.806;38.082;2023-05-07T00:56:29;5.53;;;2.25;;
55989;SDS011;41875;55.806;38.082;2023-05-07T00:59:00;5.78;;;2.53;;
55989;SDS011;41875;55.806;38.082;2023-05-07T01:01:30;6.85;;;3.28;;
55989;SDS011;41875;55.806;38.082;2023-05-07T01:04:00;6.43;;;3.15;;
55989;SDS011;41875;55.806;38.082;2023-05-07T01:06:29;6.97;;;3.00;;
55989;SDS011;41875;55.806;38.082;2023-05-07T01:09:00;7.22;;;2.92;;
55989;SDS011;41875;55.806;38.082;2023-05-07T01:11:31;8.45;;;3.53;;
55989;SDS011;41875;55.806;38.082;2023-05-07T01:16:28;5.22;;;2.63;;
55989;SDS011;41875;55.806;38.082;2023-05-07T01:18:58;11.07;;;3.38;;
55989;SDS011;41875;55.806;38.082;2023-05-07T01:21:26;6.97;;;2.55;;
55989;SDS011;41875;55.806;38.082;2023-05-07T01:24:03;7.50;;;3.22;;
55989;SDS011;41875;55.806;38.082;2023-05-07T01:26:33;7.95;;;3.70;;
55989;SDS011;41875;55.806;38.082;2023-05-07T01:31:30;6.28;;;2.85;;
55989;SDS011;41875;55.806;38.082;2023-05-07T01:34:00;8.43;;;4.25;;
55989;SDS011;41875;55.806;38.082;2023-05-07T01:36:31;8.57;;;3.65;;
55989;SDS011;41875;55.806;38.082;2023-05-07T01:39:01;10.30;;;3.83;;
55989;SDS011;41875;55.806;38.082;2023-05-07T01:41:32;7.32;;;3.03;;
55989;SDS011;41875;55.806;38.082;2023-05-07T01:44:01;8.68;;;3.40;;
55989;SDS011;41875;55.806;38.082;2023-05-07T01:46:31;7.80;;;3.20;;
55989;SDS011;41875;55.806;38.082;2023-05-07T01:49:00;9.32;;;3.22;;
55989;SDS011;41875;55.806;38.082;2023-05-07T01:51:29;8.32;;;3.10;;
55989;SDS011;41875;55.806;38.082;2023-05-07T01:53:58;5.88;;;2.92;;
55989;SDS011;41875;55.806;38.082;2023-05-07T01:56:27;7.53;;;2.60;;
55989;SDS011;41875;55.806;38.082;2023-05-07T02:01:26;8.23;;;3.25;;
55989;SDS011;41875;55.806;38.082;2023-05-07T02:03:55;7.15;;;2.83;;
55989;SDS011;41875;55.806;38.082;2023-05-07T02:06:26;7.05;;;3.17;;
55989;SDS011;41875;55.806;38.082;2023-05-07T02:09:01;7.43;;;3.33;;
55989;SDS011;41875;55.806;38.082;2023-05-07T02:11:29;6.28;;;3.10;;
55989;SDS011;41875;55.806;38.082;2023-05-07T02:13:59;5.53;;;2.63;;
55989;SDS011;41875;55.806;38.082;2023-05-07T02:16:28;5.65;;;2.80;;
55989;SDS011;41875;55.806;38.082;2023-05-07T02:18:56;5.32;;;2.17;;
55989;SDS011;41875;55.806;38.082;2023-05-07T02:21:26;9.43;;;2.92;;
55989;SDS011;41875;55.806;38.082;2023-05-07T02:23:56;8.52;;;3.30;;
55989;SDS011;41875;55.806;38.082;2023-05-07T02:26:25;6.03;;;2.60;;
55989;SDS011;41875;55.806;38.082;2023-05-07T02:28:53;7.95;;;3.00;;
55989;SDS011;41875;55.806;38.082;2023-05-07T02:31:23;6.10;;;2.80;;
55989;SDS011;41875;55.806;38.082;2023-05-07T02:33:52;9.00;;;2.38;;
55989;SDS011;41875;55.806;38.082;2023-05-07T02:36:20;7.18;;;2.72;;
55989;SDS011;41875;55.806;38.082;2023-05-07T02:38:55;7.63;;;3.25;;
55989;SDS011;41875;55.806;38.082;2023-05-07T02:41:24;6.18;;;2.83;;
55989;SDS011;41875;55.806;38.082;2023-05-07T02:43:52;7.80;;;2.78;;
55989;SDS011;41875;55.806;38.082;2023-05-07T02:46:21;6.10;;;2.55;;
55989;SDS011;41875;55.806;38.082;2023-05-07T02:48:59;4.97;;;1.85;;
55989;SDS011;41875;55.806;38.082;2023-05-07T02:51:29;5.68;;;2.35;;
55989;SDS011;41875;55.806;38.082;2023-05-07T02:54:01;7.47;;;3.13;;
55989;SDS011;41875;55.806;38.082;2023-05-07T02:56:31;5.70;;;2.30;;
55989;SDS011;41875;55.806;38.082;2023-05-07T02:59:00;5.22;;;2.60;;
55989;SDS011;41875;55.806;38.082;2023-05-07T03:01:33;4.40;;;2.13;;
55989;SDS011;41875;55.806;38.082;2023-05-07T03:04:05;7.15;;;2.42;;
55989;SDS011;41875;55.806;38.082;2023-05-07T03:06:34;5.65;;;2.20;;
55989;SDS011;41875;55.806;38.082;2023-05-07T03:09:02;5.63;;;2.05;;
55989;SDS011;41875;55.806;38.082;2023-05-07T03:11:31;10.10;;;3.13;;
55989;SDS011;41875;55.806;38.082;2023-05-07T03:14:00;7.85;;;3.03;;
55989;SDS011;41875;55.806;38.082;2023-05-07T03:16:28;4.40;;;2.08;;
55989;SDS011;41875;55.806;38.082;2023-05-07T03:18:57;7.28;;;2.78;;
55989;SDS011;41875;55.806;38.082;2023-05-07T03:21:27;6.90;;;2.53;;
55989;SDS011;41875;55.806;38.082;2023-05-07T03:23:57;12.73;;;3.60;;
55989;SDS011;41875;55.806;38.082;2023-05-07T03:26:25;6.47;;;2.85;;
55989;SDS011;41875;55.806;38.082;2023-05-07T03:28:54;4.93;;;2.35;;
55989;SDS011;41875;55.806;38.082;2023-05-07T03:31:23;6.88;;;2.50;;
55989;SDS011;41875;55.806;38.082;2023-05-07T03:36:21;7.07;;;2.08;;
55989;SDS011;41875;55.806;38.082;2023-05-07T03:38:52;4.70;;;2.20;;
55989;SDS011;41875;55.806;38.082;2023-05-07T03:41:24;3.40;;;1.38;;
55989;SDS011;41875;55.806;38.082;2023-05-07T03:43:53;5.07;;;2.20;;
55989;SDS011;41875;55.806;38.082;2023-05-07T03:46:22;4.95;;;2.22;;
55989;SDS011;41875;55.806;38.082;2023-05-07T03:48:53;6.07;;;2.63;;
55989;SDS011;41875;55.806;38.082;2023-05-07T03:51:24;5.10;;;1.98;;
55989;SDS011;41875;55.806;38.082;2023-05-07T03:53:55;4.97;;;2.13;;
55989;SDS011;41875;55.806;38.082;2023-05-07T03:56:26;6.80;;;2.50;;
55989;SDS011;41875;55.806;38.082;2023-05-07T03:58:56;6.85;;;1.95;;
55989;SDS011;41875;55.806;38.082;2023-05-07T04:01:25;5.00;;;2.08;;
55989;SDS011;41875;55.806;38.082;2023-05-07T04:03:55;2.58;;;1.30;;
55989;SDS011;41875;55.806;38.082;2023-05-07T04:06:24;6.13;;;2.28;;
55989;SDS011;41875;55.806;38.082;2023-05-07T04:08:52;4.45;;;1.25;;
55989;SDS011;41875;55.806;38.082;2023-05-07T04:11:22;5.55;;;2.30;;
55989;SDS011;41875;55.806;38.082;2023-05-07T04:13:52;3.45;;;1.63;;
55989;SDS011;41875;55.806;38.082;2023-05-07T04:16:22;3.05;;;1.50;;
55989;SDS011;41875;55.806;38.082;2023-05-07T04:18:51;3.75;;;1.63;;
55989;SDS011;41875;55.806;38.082;2023-05-07T04:21:20;3.63;;;1.48;;
55989;SDS011;41875;55.806;38.082;2023-05-07T04:23:50;5.22;;;1.75;;
55989;SDS011;41875;55.806;38.082;2023-05-07T04:26:18;7.93;;;2.50;;
55989;SDS011;41875;55.806;38.082;2023-05-07T04:28:49;4.68;;;1.95;;
55989;SDS011;41875;55.806;38.082;2023-05-07T04:31:18;6.07;;;2.40;;
55989;SDS011;41875;55.806;38.082;2023-05-07T04:33:51;5.90;;;2.08;;
55989;SDS011;41875;55.806;38.082;2023-05-07T04:36:19;5.32;;;1.90;;
55989;SDS011;41875;55.806;38.082;2023-05-07T04:38:54;6.60;;;1.60;;
55989;SDS011;41875;55.806;38.082;2023-05-07T04:41:23;3.20;;;1.42;;
55989;SDS011;41875;55.806;38.082;2023-05-07T04:43:53;4.80;;;1.73;;
55989;SDS011;41875;55.806;38.082;2023-05-07T04:46:23;3.67;;;1.40;;
55989;SDS011;41875;55.806;38.082;2023-05-07T04:48:56;4.70;;;1.92;;
55989;SDS011;41875;55.806;38.082;2023-05-07T04:51:25;5.22;;;1.67;;
55989;SDS011;41875;55.806;38.082;2023-05-07T04:53:56;6.22;;;2.30;;
55989;SDS011;41875;55.806;38.082;2023-05-07T04:56:27;3.28;;;1.27;;
55989;SDS011;41875;55.806;38.082;2023-05-07T04:58:59;3.13;;;1.13;;
55989;SDS011;41875;55.806;38.082;2023-05-07T05:01:29;2.30;;;0.98;;
55989;SDS011;41875;55.806;38.082;2023-05-07T05:03:57;4.05;;;1.50;;
55989;SDS011;41875;55.806;38.082;2023-05-07T05:06:28;2.28;;;1.30;;
55989;SDS011;41875;55.806;38.082;2023-05-07T05:09:05;2.47;;;1.10;;
55989;SDS011;41875;55.806;38.082;2023-05-07T05:11:34;1.75;;;0.80;;
55989;SDS011;41875;55.806;38.082;2023-05-07T05:14:08;3.17;;;1.30;;
55989;SDS011;41875;55.806;38.082;2023-05-07T05:16:36;1.45;;;0.93;;
55989;SDS011;41875;55.806;38.082;2023-05-07T05:19:05;1.45;;;1.00;;
55989;SDS011;41875;55.806;38.082;2023-05-07T05:21:37;3.97;;;1.65;;
55989;SDS011;41875;55.806;38.082;2023-05-07T05:24:08;3.95;;;1.40;;
55989;SDS011;41875;55.806;38.082;2023-05-07T05:26:40;1.65;;;1.15;;
55989;SDS011;41875;55.806;38.082;2023-05-07T05:29:10;2.85;;;1.20;;
55989;SDS011;41875;55.806;38.082;2023-05-07T05:31:41;2.83;;;1.42;;
55989;SDS011;41875;55.806;38.082;2023-05-07T05:34:10;2.25;;;1.08;;
55989;SDS011;41875;55.806;38.082;2023-05-07T05:36:39;2.75;;;1.27;;
55989;SDS011;41875;55.806;38.082;2023-05-07T05:39:08;2.72;;;1.30;;
55989;SDS011;41875;55.806;38.082;2023-05-07T05:41:37;3.42;;;1.40;;
55989;SDS011;41875;55.806;38.082;2023-05-07T05:44:07;2.35;;;1.20;;
55989;SDS011;41875;55.806;38.082;2023-05-07T05:46:41;3.10;;;1.40;;
55989;SDS011;41875;55.806;38.082;2023-05-07T05:49:10;2.95;;;1.50;;
55989;SDS011;41875;55.806;38.082;2023-05-07T05:51:39;5.00;;;1.92;;
55989;SDS011;41875;55.806;38.082;2023-05-07T05:54:08;2.92;;;1.45;;
55989;SDS011;41875;55.806;38.082;2023-05-07T05:56:36;2.33;;;1.10;;
55989;SDS011;41875;55.806;38.082;2023-05-07T05:59:06;4.30;;;1.60;;
55989;SDS011;41875;55.806;38.082;2023-05-07T06:01:37;5.60;;;1.20;;
55989;SDS011;41875;55.806;38.082;2023-05-07T06:04:16;2.35;;;1.45;;
55989;SDS011;41875;55.806;38.082;2023-05-07T06:06:44;2.13;;;1.17;;
55989;SDS011;41875;55.806;38.082;2023-05-07T06:11:43;2.85;;;1.65;;
55989;SDS011;41875;55.806;38.082;2023-05-07T06:14:15;3.17;;;1.35;;
55989;SDS011;41875;55.806;38.082;2023-05-07T06:16:46;3.28;;;1.10;;
55989;SDS011;41875;55.806;38.082;2023-05-07T06:19:14;2.55;;;1.45;;
55989;SDS011;41875;55.806;38.082;2023-05-07T06:21:46;3.75;;;1.40;;
55989;SDS011;41875;55.806;38.082;2023-05-07T06:24:18;3.20;;;1.50;;
55989;SDS011;41875;55.806;38.082;2023-05-07T06:26:47;2.33;;;1.13;;
55989;SDS011;41875;55.806;38.082;2023-05-07T06:29:15;2.17;;;1.13;;
55989;SDS011;41875;55.806;38.082;2023-05-07T06:31:46;5.75;;;1.23;;
55989;SDS011;41875;55.806;38.082;2023-05-07T06:34:14;6.13;;;1.55;;
55989;SDS011;41875;55.806;38.082;2023-05-07T06:36:43;3.08;;;1.30;;
55989;SDS011;41875;55.806;38.082;2023-05-07T06:39:22;2.20;;;1.25;;
55989;SDS011;41875;55.806;38.082;2023-05-07T06:41:51;3.85;;;1.27;;
55989;SDS011;41875;55.806;38.082;2023-05-07T06:44:27;4.38;;;1.20;;
55989;SDS011;41875;55.806;38.082;2023-05-07T06:47:07;2.97;;;1.13;;
55989;SDS011;41875;55.806;38.082;2023-05-07T06:49:43;2.00;;;0.90;;
55989;SDS011;41875;55.806;38.082;2023-05-07T06:52:17;2.88;;;1.40;;
55989;SDS011;41875;55.806;38.082;2023-05-07T06:54:47;4.03;;;1.13;;
55989;SDS011;41875;55.806;38.082;2023-05-07T06:57:19;4.53;;;1.30;;
55989;SDS011;41875;55.806;38.082;2023-05-07T07:02:17;2.42;;;1.35;;
55989;SDS011;41875;55.806;38.082;2023-05-07T07:04:48;1.77;;;0.90;;
55989;SDS011;41875;55.806;38.082;2023-05-07T07:07:18;3.17;;;1.10;;
55989;SDS011;41875;55.806;38.082;2023-05-07T07:09:49;1.13;;;0.93;;
55989;SDS011;41875;55.806;38.082;2023-05-07T07:12:19;2.08;;;1.13;;
55989;SDS011;41875;55.806;38.082;2023-05-07T07:14:47;2.65;;;1.20;;
55989;SDS011;41875;55.806;38.082;2023-05-07T07:17:17;3.45;;;0.95;;
55989;SDS011;41875;55.806;38.082;2023-05-07T07:19:46;1.52;;;1.00;;
55989;SDS011;41875;55.806;38.082;2023-05-07T07:22:14;4.88;;;1.15;;
55989;SDS011;41875;55.806;38.082;2023-05-07T07:24:46;1.40;;;0.98;;
55989;SDS011;41875;55.806;38.082;2023-05-07T07:27:16;7.57;;;1.55;;
55989;SDS011;41875;55.806;38.082;2023-05-07T07:29:45;4.95;;;1.38;;
55989;SDS011;41875;55.806;38.082;2023-05-07T07:32:13;1.88;;;1.00;;
55989;SDS011;41875;55.806;38.082;2023-05-07T07:34:44;3.92;;;1.40;;
55989;SDS011;41875;55.806;38.082;2023-05-07T07:37:12;3.30;;;1.10;;
55989;SDS011;41875;55.806;38.082;2023-05-07T07:39:41;1.65;;;1.00;;
55989;SDS011;41875;55.806;38.082;2023-05-07T07:42:10;2.63;;;1.00;;
55989;SDS011;41875;55.806;38.082;2023-05-07T07:44:39;2.88;;;1.23;;
55989;SDS011;41875;55.806;38.082;2023-05-07T07:47:09;2.55;;;1.15;;
55989;SDS011;41875;55.806;38.082;2023-05-07T07:49:44;1.58;;;1.13;;
55989;SDS011;41875;55.806;38.082;2023-05-07T07:52:12;1.27;;;0.90;;
55989;SDS011;41875;55.806;38.082;2023-05-07T07:54:44;1.30;;;0.80;;
55989;SDS011;41875;55.806;38.082;2023-05-07T07:57:13;1.00;;;0.70;;
55989;SDS011;41875;55.806;38.082;2023-05-07T07:59:45;1.05;;;0.73;;
55989;SDS011;41875;55.806;38.082;2023-05-07T08:02:15;2.80;;;1.05;;
55989;SDS011;41875;55.806;38.082;2023-05-07T08:04:45;2.22;;;1.20;;
55989;SDS011;41875;55.806;38.082;2023-05-07T08:07:14;3.40;;;1.23;;
55989;SDS011;41875;55.806;38.082;2023-05-07T08:09:46;2.47;;;1.17;;
55989;SDS011;41875;55.806;38.082;2023-05-07T08:12:20;2.60;;;1.08;;
55989;SDS011;41875;55.806;38.082;2023-05-07T08:14:48;3.50;;;0.95;;
55989;SDS011;41875;55.806;38.082;2023-05-07T08:17:17;1.50;;;1.00;;
55989;SDS011;41875;55.806;38.082;2023-05-07T08:19:51;2.42;;;1.10;;
55989;SDS011;41875;55.806;38.082;2023-05-07T08:22:19;3.63;;;1.00;;
55989;SDS011;41875;55.806;38.082;2023-05-07T08:24:50;2.47;;;1.30;;
55989;SDS011;41875;55.806;38.082;2023-05-07T08:27:20;6.55;;;1.20;;
55989;SDS011;41875;55.806;38.082;2023-05-07T08:29:48;3.47;;;0.95;;
55989;SDS011;41875;55.806;38.082;2023-05-07T08:32:19;1.23;;;1.00;;
55989;SDS011;41875;55.806;38.082;2023-05-07T08:37:17;2.78;;;0.90;;
55989;SDS011;41875;55.806;38.082;2023-05-07T08:39:46;1.13;;;1.00;;
55989;SDS011;41875;55.806;38.082;2023-05-07T08:42:19;2.40;;;1.00;;
55989;SDS011;41875;55.806;38.082;2023-05-07T08:44:51;4.43;;;1.42;;
55989;SDS011;41875;55.806;38.082;2023-05-07T08:47:22;1.60;;;1.02;;
55989;SDS011;41875;55.806;38.082;2023-05-07T08:49:59;1.95;;;1.05;;
55989;SDS011;41875;55.806;38.082;2023-05-07T08:52:30;3.72;;;1.55;;
55989;SDS011;41875;55.806;38.082;2023-05-07T08:54:59;2.22;;;1.00;;
55989;SDS011;41875;55.806;38.082;2023-05-07T08:57:30;3.53;;;1.40;;
55989;SDS011;41875;55.806;38.082;2023-05-07T08:59:58;3.22;;;1.50;;
55989;SDS011;41875;55.806;38.082;2023-05-07T09:02:29;1.15;;;0.80;;
55989;SDS011;41875;55.806;38.082;2023-05-07T09:04:59;6.10;;;1.65;;
55989;SDS011;41875;55.806;38.082;2023-05-07T09:07:29;1.88;;;1.10;;
55989;SDS011;41875;55.806;38.082;2023-05-07T09:10:02;2.85;;;1.20;;
55989;SDS011;41875;55.806;38.082;2023-05-07T09:12:33;2.42;;;1.20;;
55989;SDS011;41875;55.806;38.082;2023-05-07T09:15:05;2.88;;;1.48;;
55989;SDS011;41875;55.806;38.082;2023-05-07T09:17:36;1.83;;;0.93;;
55989;SDS011;41875;55.806;38.082;2023-05-07T09:20:06;1.52;;;1.00;;
55989;SDS011;41875;55.806;38.082;2023-05-07T09:22:39;2.00;;;0.98;;
55989;SDS011;41875;55.806;38.082;2023-05-07T09:25:11;4.43;;;1.20;;
55989;SDS011;41875;55.806;38.082;2023-05-07T09:27:41;2.47;;;1.10;;
55989;SDS011;41875;55.806;38.082;2023-05-07T09:30:10;1.98;;;1.27;;
55989;SDS011;41875;55.806;38.082;2023-05-07T09:32:39;2.95;;;1.15;;
55989;SDS011;41875;55.806;38.082;2023-05-07T09:35:14;2.40;;;1.27;;
55989;SDS011;41875;55.806;38.082;2023-05-07T09:37:51;1.73;;;0.90;;
55989;SDS011;41875;55.806;38.082;2023-05-07T09:40:22;2.42;;;1.20;;
55989;SDS011;41875;55.806;38.082;2023-05-07T09:42:53;2.60;;;0.93;;
55989;SDS011;41875;55.806;38.082;2023-05-07T09:45:22;3.17;;;1.50;;
55989;SDS011;41875;55.806;38.082;2023-05-07T09:47:54;2.75;;;1.30;;
55989;SDS011;41875;55.806;38.082;2023-05-07T09:50:26;3.45;;;1.50;;
55989;SDS011;41875;55.806;38.082;2023-05-07T09:52:58;2.60;;;1.30;;
55989;SDS011;41875;55.806;38.082;2023-05-07T09:55:28;3.88;;;1.27;;
55989;SDS011;41875;55.806;38.082;2023-05-07T10:00:27;3.97;;;1.38;;
55989;SDS011;41875;55.806;38.082;2023-05-07T10:03:05;3.47;;;1.30;;
55989;SDS011;41875;55.806;38.082;2023-05-07T10:05:50;1.33;;;0.85;;
55989;SDS011;41875;55.806;38.082;2023-05-07T10:08:23;5.63;;;1.90;;
55989;SDS011;41875;55.806;38.082;2023-05-07T10:10:55;1.95;;;1.00;;
55989;SDS011;41875;55.806;38.082;2023-05-07T10:13:26;1.58;;;0.85;;
55989;SDS011;41875;55.806;38.082;2023-05-07T10:15:57;2.08;;;1.10;;
55989;SDS011;41875;55.806;38.082;2023-05-07T10:18:31;2.72;;;1.10;;
55989;SDS011;41875;55.806;38.082;2023-05-07T10:21:08;2.58;;;1.08;;
55989;SDS011;41875;55.806;38.082;2023-05-07T10:23:45;0.93;;;0.70;;
55989;SDS011;41875;55.806;38.082;2023-05-07T10:26:17;2.50;;;1.05;;
55989;SDS011;41875;55.806;38.082;2023-05-07T10:28:48;3.65;;;1.30;;
55989;SDS011;41875;55.806;38.082;2023-05-07T10:31:25;2.85;;;1.33;;
55989;SDS011;41875;55.806;38.082;2023-05-07T10:34:07;1.52;;;0.95;;
55989;SDS011;41875;55.806;38.082;2023-05-07T10:36:39;1.88;;;1.05;;
55989;SDS011;41875;55.806;38.082;2023-05-07T10:39:11;3.80;;;1.30;;
55989;SDS011;41875;55.806;38.082;2023-05-07T10:41:39;2.65;;;1.08;;
55989;SDS011;41875;55.806;38.082;2023-05-07T10:44:09;2.42;;;1.00;;
55989;SDS011;41875;55.806;38.082;2023-05-07T10:46:38;2.55;;;1.25;;
55989;SDS011;41875;55.806;38.082;2023-05-07T10:49:12;2.17;;;0.95;;
55989;SDS011;41875;55.806;38.082;2023-05-07T10:52:10;3.88;;;1.40;;
55989;SDS011;41875;55.806;38.082;2023-05-07T10:55:18;1.05;;;0.90;;
55989;SDS011;41875;55.806;38.082;2023-05-07T10:57:56;2.38;;;1.00;;
55989;SDS011;41875;55.806;38.082;2023-05-07T11:01:03;5.53;;;1.10;;
55989;SDS011;41875;55.806;38.082;2023-05-07T11:03:37;3.35;;;1.35;;
55989;SDS011;41875;55.806;38.082;2023-05-07T11:07:18;2.50;;;1.00;;
55989;SDS011;41875;55.806;38.082;2023-05-07T11:12:51;3.70;;;1.35;;
55989;SDS011;41875;55.806;38.082;2023-05-07T11:15:40;4.35;;;1.58;;
55989;SDS011;41875;55.806;38.082;2023-05-07T11:18:20;3.65;;;1.27;;
55989;SDS011;41875;55.806;38.082;2023-05-07T11:20:51;3.58;;;1.20;;
55989;SDS011;41875;55.806;38.082;2023-05-07T11:26:57;1.33;;;0.80;;
55989;SDS011;41875;55.806;38.082;2023-05-07T11:29:28;1.58;;;0.90;;
55989;SDS011;41875;55.806;38.082;2023-05-07T11:32:04;2.97;;;1.40;;
55989;SDS011;41875;55.806;38.082;2023-05-07T11:34:46;5.15;;;1.40;;
55989;SDS011;41875;55.806;38.082;2023-05-07T11:37:18;1.98;;;1.13;;
55989;SDS011;41875;55.806;38.082;2023-05-07T11:40:07;3.83;;;1.80;;
55989;SDS011;41875;55.806;38.082;2023-05-07T11:42:39;6.97;;;1.42;;
55989;SDS011;41875;55.806;38.082;2023-05-07T11:45:09;1.90;;;1.10;;
55989;SDS011;41875;55.806;38.082;2023-05-07T11:47:38;3.22;;;1.40;;
55989;SDS011;41875;55.806;38.082;2023-05-07T11:50:10;9.93;;;0.90;;
55989;SDS011;41875;55.806;38.082;2023-05-07T11:52:39;1.02;;;0.73;;
55989;SDS011;41875;55.806;38.082;2023-05-07T11:55:08;4.35;;;1.25;;
55989;SDS011;41875;55.806;38.082;2023-05-07T11:57:38;2.85;;;1.08;;
55989;SDS011;41875;55.806;38.082;2023-05-07T12:00:09;1.48;;;0.90;;
55989;SDS011;41875;55.806;38.082;2023-05-07T12:02:39;1.52;;;0.90;;
55989;SDS011;41875;55.806;38.082;2023-05-07T12:05:09;2.78;;;1.10;;
55989;SDS011;41875;55.806;38.082;2023-05-07T12:07:38;2.05;;;1.10;;
55989;SDS011;41875;55.806;38.082;2023-05-07T12:10:07;2.08;;;1.13;;
55989;SDS011;41875;55.806;38.082;2023-05-07T12:12:40;2.10;;;1.00;;
55989;SDS011;41875;55.806;38.082;2023-05-07T12:15:09;4.15;;;1.10;;
55989;SDS011;41875;55.806;38.082;2023-05-07T12:17:38;1.67;;;0.90;;
55989;SDS011;41875;55.806;38.082;2023-05-07T12:20:08;3.63;;;1.60;;
55989;SDS011;41875;55.806;38.082;2023-05-07T12:22:38;1.95;;;0.93;;
55989;SDS011;41875;55.806;38.082;2023-05-07T12:25:07;4.60;;;1.60;;
55989;SDS011;41875;55.806;38.082;2023-05-07T12:27:36;2.70;;;1.25;;
55989;SDS011;41875;55.806;38.082;2023-05-07T12:30:11;3.03;;;1.42;;
55989;SDS011;41875;55.806;38.082;2023-05-07T12:32:40;2.30;;;1.15;;
55989;SDS011;41875;55.806;38.082;2023-05-07T12:35:09;5.15;;;1.40;;
55989;SDS011;41875;55.806;38.082;2023-05-07T12:37:38;4.13;;;1.58;;
55989;SDS011;41875;55.806;38.082;2023-05-07T12:40:07;3.55;;;1.52;;
55989;SDS011;41875;55.806;38.082;2023-05-07T12:42:37;3.55;;;1.20;;
55989;SDS011;41875;55.806;38.082;2023-05-07T12:45:10;2.88;;;1.33;;
55989;SDS011;41875;55.806;38.082;2023-05-07T12:47:43;2.42;;;1.13;;
55989;SDS011;41875;55.806;38.082;2023-05-07T12:50:12;2.60;;;1.30;;
55989;SDS011;41875;55.806;38.082;2023-05-07T12:52:42;5.05;;;1.40;;
55989;SDS011;41875;55.806;38.082;2023-05-07T12:55:12;3.35;;;0.75;;
55989;SDS011;41875;55.806;38.082;2023-05-07T12:57:43;2.13;;;1.10;;
55989;SDS011;41875;55.806;38.082;2023-05-07T13:00:17;2.70;;;1.40;;
55989;SDS011;41875;55.806;38.082;2023-05-07T13:02:46;2.30;;;1.00;;
55989;SDS011;41875;55.806;38.082;2023-05-07T13:05:15;2.53;;;1.13;;
55989;SDS011;41875;55.806;38.082;2023-05-07T13:07:52;3.67;;;1.35;;
55989;SDS011;41875;55.806;38.082;2023-05-07T13:10:22;2.92;;;1.48;;
55989;SDS011;41875;55.806;38.082;2023-05-07T13:12:51;3.40;;;1.20;;
55989;SDS011;41875;55.806;38.082;2023-05-07T13:15:21;3.00;;;1.20;;
55989;SDS011;41875;55.806;38.082;2023-05-07T13:17:50;2.65;;;1.33;;
55989;SDS011;41875;55.806;38.082;2023-05-07T13:20:19;2.67;;;1.27;;
55989;SDS011;41875;55.806;38.082;2023-05-07T13:22:47;2.47;;;1.23;;
55989;SDS011;41875;55.806;38.082;2023-05-07T13:25:16;2.08;;;0.90;;
55989;SDS011;41875;55.806;38.082;2023-05-07T13:30:30;2.05;;;0.90;;
55989;SDS011;41875;55.806;38.082;2023-05-07T13:32:58;2.00;;;1.10;;
55989;SDS011;41875;55.806;38.082;2023-05-07T13:35:27;3.45;;;1.33;;
55989;SDS011;41875;55.806;38.082;2023-05-07T13:37:56;3.15;;;1.23;;
55989;SDS011;41875;55.806;38.082;2023-05-07T13:40:25;6.18;;;1.50;;
55989;SDS011;41875;55.806;38.082;2023-05-07T13:42:53;3.38;;;1.52;;
55989;SDS011;41875;55.806;38.082;2023-05-07T13:45:26;2.13;;;1.05;;
55989;SDS011;41875;55.806;38.082;2023-05-07T13:47:57;3.78;;;1.58;;
55989;SDS011;41875;55.806;38.082;2023-05-07T13:50:26;4.95;;;1.60;;
55989;SDS011;41875;55.806;38.082;2023-05-07T13:52:56;4.00;;;1.42;;
55989;SDS011;41875;55.806;38.082;2023-05-07T13:55:25;2.35;;;1.10;;
55989;SDS011;41875;55.806;38.082;2023-05-07T13:57:56;5.57;;;1.70;;
55989;SDS011;41875;55.806;38.082;2023-05-07T14:00:26;5.40;;;2.08;;
55989;SDS011;41875;55.806;38.082;2023-05-07T14:02:56;1.80;;;1.05;;
55989;SDS011;41875;55.806;38.082;2023-05-07T14:05:26;4.20;;;1.85;;
55989;SDS011;41875;55.806;38.082;2023-05-07T14:07:55;4.57;;;1.42;;
55989;SDS011;41875;55.806;38.082;2023-05-07T14:10:26;3.45;;;1.10;;
55989;SDS011;41875;55.806;38.082;2023-05-07T14:12:58;4.20;;;1.30;;
55989;SDS011;41875;55.806;38.082;2023-05-07T14:15:27;1.83;;;1.10;;
55989;SDS011;41875;55.806;38.082;2023-05-07T14:17:55;3.97;;;1.38;;
55989;SDS011;41875;55.806;38.082;2023-05-07T14:20:26;1.67;;;0.90;;
55989;SDS011;41875;55.806;38.082;2023-05-07T14:27:52;2.50;;;1.20;;
55989;SDS011;41875;55.806;38.082;2023-05-07T14:30:20;2.30;;;1.00;;
55989;SDS011;41875;55.806;38.082;2023-05-07T14:32:51;3.38;;;1.33;;
55989;SDS011;41875;55.806;38.082;2023-05-07T14:35:21;2.15;;;1.10;;
55989;SDS011;41875;55.806;38.082;2023-05-07T14:37:49;3.45;;;1.58;;
55989;SDS011;41875;55.806;38.082;2023-05-07T14:40:18;3.05;;;1.42;;
55989;SDS011;41875;55.806;38.082;2023-05-07T14:42:46;2.75;;;1.20;;
55989;SDS011;41875;55.806;38.082;2023-05-07T14:45:15;1.80;;;1.00;;
55989;SDS011;41875;55.806;38.082;2023-05-07T14:47:43;2.63;;;1.10;;
55989;SDS011;41875;55.806;38.082;2023-05-07T14:50:17;2.53;;;1.20;;
55989;SDS011;41875;55.806;38.082;2023-05-07T14:52:50;2.33;;;1.00;;
55989;SDS011;41875;55.806;38.082;2023-05-07T14:55:18;2.17;;;1.17;;
55989;SDS011;41875;55.806;38.082;2023-05-07T14:57:47;3.58;;;1.30;;
55989;SDS011;41875;55.806;38.082;2023-05-07T15:00:15;3.53;;;1.48;;
55989;SDS011;41875;55.806;38.082;2023-05-07T15:02:44;4.28;;;1.73;;
55989;SDS011;41875;55.806;38.082;2023-05-07T15:05:13;4.35;;;1.52;;
55989;SDS011;41875;55.806;38.082;2023-05-07T15:07:42;2.97;;;1.42;;
55989;SDS011;41875;55.806;38.082;2023-05-07T15:10:13;2.20;;;1.00;;
55989;SDS011;41875;55.806;38.082;2023-05-07T15:12:42;3.35;;;1.08;;
55989;SDS011;41875;55.806;38.082;2023-05-07T15:15:11;3.75;;;1.38;;
55989;SDS011;41875;55.806;38.082;2023-05-07T15:17:39;1.75;;;0.95;;
55989;SDS011;41875;55.806;38.082;2023-05-07T15:20:08;1.88;;;1.08;;
55989;SDS011;41875;55.806;38.082;2023-05-07T15:22:37;2.35;;;1.13;;
55989;SDS011;41875;55.806;38.082;2023-05-07T15:25:05;3.53;;;1.60;;
55989;SDS011;41875;55.806;38.082;2023-05-07T15:27:37;3.28;;;1.33;;
55989;SDS011;41875;55.806;38.082;2023-05-07T15:30:06;2.45;;;1.27;;
55989;SDS011;41875;55.806;38.082;2023-05-07T15:32:39;3.47;;;1.42;;
55989;SDS011;41875;55.806;38.082;2023-05-07T15:35:08;2.47;;;1.30;;
55989;SDS011;41875;55.806;38.082;2023-05-07T15:37:38;3.17;;;1.30;;
55989;SDS011;41875;55.806;38.082;2023-05-07T15:40:06;3.13;;;1.15;;